»·PEaware :: N973SE KSBP-KOXR

N973SE :: KSBP-KOXR

FLIGHT INFORMATION

Flight Status: Arrived
Operator: Privately registered:
United States
More flights under this callsign
Pilot: Stig E. (4778)
Aircraft: CESSNA 310
(C310)
More flights by this aircraft type
Origin: KSBP San Luis Co Regl
United States
Destination: KOXR Oxnard
United States
More flights between these airports :: More routes between these airports
Route: RZS NELLY
File this flight plan on PilotEdge
Remarks: +CW /
Altitude:
(Current/Filed)
11,500ft
Speed:
(Current/Filed)
170kts
Departed: 07-Feb-19 10:54 PM
Arrived: 07-Feb-19 11:38 PM
Distance/Time
Traveled:
95nm/0:44
Distance/Time
To Go:
Arrived

Flight Plot

Page will automatically refresh every two minutes.

Flight plan parsing failed; only flown route is shown


Map Options




Map Legend


Flown Route
Filed Route
Departure Airport
Arrival Airport
Navaid (VOR, NDB)
Fix

Horizontal Profiles

Position Reports

Time Latitude Longitude Heading Altitude Ground
Speed
07-Feb-19 22:43 35.238396 -120.639814 311 216ft 0kts
07-Feb-19 22:44 35.238396 -120.639814 311 216ft 0kts
07-Feb-19 22:45 35.238396 -120.639814 311 216ft 0kts
07-Feb-19 22:46 35.238396 -120.639814 311 216ft 0kts
07-Feb-19 22:47 35.236925 -120.638327 123 216ft 16kts
07-Feb-19 22:48 35.234140 -120.633453 124 216ft 17kts
07-Feb-19 22:49 35.233076 -120.631973 222 216ft 0kts
07-Feb-19 22:50 35.233076 -120.631973 222 216ft 0kts
07-Feb-19 22:51 35.233076 -120.631973 222 216ft 0kts
07-Feb-19 22:52 35.233035 -120.632029 232 215ft 3kts
07-Feb-19 22:53 35.239916 -120.645690 304 572ft 111kts
07-Feb-19 22:54 35.241470 -120.686251 198 1810ft 159kts
07-Feb-19 22:55 35.211029 -120.653661 122 3029ft 158kts
07-Feb-19 22:56 35.187287 -120.608050 122 4237ft 159kts
07-Feb-19 22:57 35.163418 -120.562130 121 5444ft 160kts
07-Feb-19 22:58 35.136001 -120.519185 135 6649ft 162kts
07-Feb-19 22:59 35.103477 -120.480269 135 7859ft 164kts
07-Feb-19 23:00 35.070780 -120.440947 135 9064ft 166kts
07-Feb-19 23:01 35.037896 -120.401327 134 10264ft 167kts
07-Feb-19 23:02 35.004540 -120.361123 134 11437ft 171kts
07-Feb-19 23:03 34.965933 -120.315256 135 11502ft 206kts
07-Feb-19 23:04 34.924522 -120.265507 135 11499ft 207kts
07-Feb-19 23:05 34.883532 -120.216410 135 11499ft 205kts
07-Feb-19 23:06 34.842710 -120.167762 135 11499ft 204kts
07-Feb-19 23:07 34.802140 -120.119212 135 11499ft 204kts
07-Feb-19 23:08 34.761495 -120.070641 135 11500ft 204kts
07-Feb-19 23:09 34.720898 -120.022185 135 11500ft 204kts
07-Feb-19 23:10 34.680150 -119.973602 135 11500ft 204kts
07-Feb-19 23:11 34.639414 -119.925089 135 11500ft 204kts
07-Feb-19 23:12 34.598908 -119.876965 135 11186ft 201kts
07-Feb-19 23:13 34.587223 -119.863064 135 11039ft 200kts
07-Feb-19 23:14 34.571252 -119.844212 133 10834ft 203kts
07-Feb-19 23:15 34.530579 -119.795902 133 10336ft 204kts
07-Feb-19 23:16 34.497080 -119.741582 112 9836ft 201kts
07-Feb-19 23:17 34.473177 -119.680438 112 9253ft 198kts
07-Feb-19 23:18 34.449250 -119.620491 113 8650ft 196kts
07-Feb-19 23:19 34.425467 -119.561265 113 8052ft 194kts
07-Feb-19 23:20 34.401703 -119.502264 112 7451ft 193kts
07-Feb-19 23:21 34.378123 -119.443794 112 6894ft 191kts
07-Feb-19 23:22 34.354640 -119.385618 112 6388ft 189kts
07-Feb-19 23:23 34.331549 -119.328507 113 5890ft 187kts
07-Feb-19 23:24 34.308533 -119.271735 113 5391ft 187kts
07-Feb-19 23:25 34.285627 -119.215306 113 4894ft 186kts
07-Feb-19 23:26 34.262735 -119.158999 113 4395ft 185kts
07-Feb-19 23:27 34.239915 -119.102957 112 3899ft 184kts
07-Feb-19 23:28 34.217011 -119.047204 113 3401ft 184kts
07-Feb-19 23:29 34.194507 -118.992784 113 3199ft 172kts
07-Feb-19 23:30 34.205963 -118.956961 335 3313ft 144kts
07-Feb-19 23:31 34.200967 -118.999187 264 3236ft 140kts
07-Feb-19 23:32 34.199150 -119.044969 275 2588ft 136kts
07-Feb-19 23:33 34.199469 -119.087088 276 1900ft 118kts
07-Feb-19 23:34 34.199907 -119.126545 277 1260ft 116kts
07-Feb-19 23:35 34.200331 -119.165499 276 632ft 115kts
07-Feb-19 23:36 34.200726 -119.200257 277 44ft 87kts
07-Feb-19 23:37 34.199773 -119.204452 79 41ft 21kts
07-Feb-19 23:38 34.198535 -119.199485 2 44ft 0kts
07-Feb-19 23:39 34.198535 -119.199485 2 44ft 0kts
07-Feb-19 23:40 34.198535 -119.199485 2 44ft 0kts
07-Feb-19 23:41 34.198535 -119.199485 2 44ft 0kts
07-Feb-19 23:42 34.198535 -119.199485 2 44ft 0kts
07-Feb-19 23:43 34.198535 -119.199485 2 44ft 0kts
07-Feb-19 23:44 34.198535 -119.199485 2 44ft 0kts
07-Feb-19 23:45 34.198535 -119.199485 2 44ft 0kts
07-Feb-19 23:46 34.198535 -119.199485 2 44ft 0kts
07-Feb-19 23:47 34.198535 -119.199485 2 44ft 0kts
07-Feb-19 23:48 34.198535 -119.199485 2 44ft 0kts
07-Feb-19 23:49 34.198535 -119.199485 2 44ft 0kts
07-Feb-19 23:50 34.198535 -119.199485 2 44ft 0kts
07-Feb-19 23:51 34.198535 -119.199485 2 44ft 0kts

Navigation Log

Ident Type
Flight plan parsing failed, navigation log unavailable